Time;durP1;ratioP1;P1;durP2;ratioP2;P2;SDS_P1;SDS_P2;PMS_P1;PMS_P2;Temp;Humidity;BMP_temperature;BMP_pressure;BME280_temperature;BME280_humidity;BME280_pressure;Samples;Min_cycle;Max_cycle;Signal;HPM_P1;HPM_P2
2022/06/13 00:00:51;;;;;;;;;2.25;1.25;;;;;23.71;35.65;101849.22;4958532;28;45398;-53
2022/06/13 00:03:16;;;;;;;;;1.75;1.75;;;;;23.69;35.51;101845.78;4958566;28;45365;-49
2022/06/13 00:05:41;;;;;;;;;3.00;2.00;;;;;23.69;35.67;101845.78;4958958;28;45402;-52
2022/06/13 00:08:07;;;;;;;;;5.00;3.00;;;;;23.70;35.60;101847.50;4958773;28;45210;-47
2022/06/13 00:10:33;;;;;;;;;2.00;2.00;;;;;23.69;35.35;101842.31;4957146;28;46061;-54
2022/06/13 00:12:58;;;;;;;;;2.00;2.00;;;;;23.69;35.64;101859.03;4958581;28;45231;-52
2022/06/13 00:15:23;;;;;;;;;1.75;1.75;;;;;23.69;35.36;101860.84;4958700;28;45249;-56
2022/06/13 00:17:49;;;;;;;;;2.00;2.00;;;;;23.69;35.80;101860.84;4958703;28;45496;-55
2022/06/13 00:20:14;;;;;;;;;3.00;2.00;;;;;23.68;35.29;101846.72;4958255;28;46470;-54
2022/06/13 00:22:40;;;;;;;;;2.25;1.00;;;;;23.67;35.73;101855.59;4958690;28;45554;-53
2022/06/13 00:25:06;;;;;;;;;1.00;1.00;;;;;23.68;35.52;101861.75;4958494;28;45341;-51
2022/06/13 00:27:32;;;;;;;;;2.00;2.00;;;;;23.66;35.55;101856.53;4958437;28;45583;-55
2022/06/13 00:29:58;;;;;;;;;3.50;2.00;;;;;23.66;35.48;101861.81;4958208;28;46162;-54
2022/06/13 00:32:23;;;;;;;;;1.25;1.00;;;;;23.65;35.46;101854.81;4958114;28;45286;-56
2022/06/13 00:34:49;;;;;;;;;2.00;1.50;;;;;23.66;35.65;101863.63;4958310;28;45258;-56
2022/06/13 00:37:15;;;;;;;;;2.50;1.00;;;;;23.65;35.71;101860.13;4958585;28;45476;-46
2022/06/13 00:39:40;;;;;;;;;1.25;1.25;;;;;23.65;35.74;101857.47;4958290;28;45432;-55
2022/06/13 00:42:05;;;;;;;;;2.00;2.00;;;;;23.65;35.50;101857.47;4958157;28;45335;-52
2022/06/13 00:44:34;;;;;;;;;2.50;2.50;;;;;23.65;35.96;101854.81;4958242;28;45329;-52
2022/06/13 00:47:00;;;;;;;;;1.00;1.00;;;;;23.65;35.64;101856.63;4958005;28;45529;-52
2022/06/13 00:49:28;;;;;;;;;1.25;1.25;;;;;23.65;35.55;101844.22;4957726;28;46005;-52
2022/06/13 00:52:21;;;;;;;;;2.25;2.00;;;;;23.64;35.95;101842.56;4957833;28;45315;-56
2022/06/13 00:54:50;;;;;;;;;2.25;1.75;;;;;23.64;35.99;101837.25;4956899;28;45380;-54
2022/06/13 00:57:20;;;;;;;;;2.75;2.50;;;;;23.63;35.92;101838.19;4958505;28;45480;-52
2022/06/13 00:59:49;;;;;;;;;3.25;2.25;;;;;23.64;35.69;101845.19;4956949;28;45451;-55
2022/06/13 01:02:14;;;;;;;;;3.00;2.50;;;;;23.62;35.94;101826.72;4958020;28;45857;-52
2022/06/13 01:04:40;;;;;;;;;4.75;1.75;;;;;23.63;36.00;101827.59;4957837;28;45276;-49
2022/06/13 01:07:08;;;;;;;;;2.00;2.00;;;;;23.61;35.77;101827.66;4957999;28;46155;-51
2022/06/13 01:12:18;;;;;;;;;3.00;1.75;;;;;23.62;35.90;101831.19;4957642;28;45418;-54
2022/06/13 01:14:53;;;;;;;;;3.75;3.00;;;;;23.61;35.83;101816.25;4958115;28;45374;-45
2022/06/13 01:17:37;;;;;;;;;2.00;2.00;;;;;23.61;36.11;101814.44;4957902;28;45492;-51
2022/06/13 01:20:15;;;;;;;;;2.00;2.00;;;;;23.61;36.29;101819.72;4957667;28;45261;-43
2022/06/13 01:23:16;;;;;;;;;2.00;2.00;;;;;23.60;35.64;101811.88;4957586;28;45358;-42
2022/06/13 01:26:17;;;;;;;;;3.00;2.00;;;;;23.60;36.25;101809.22;4957627;28;45271;-40
2022/06/13 01:29:14;;;;;;;;;2.50;2.50;;;;;23.59;36.40;101815.47;4957957;28;45285;-42
2022/06/13 01:31:56;;;;;;;;;3.00;3.00;;;;;23.59;36.40;101812.81;4954979;28;47200;-42
2022/06/13 01:34:49;;;;;;;;;2.00;2.00;;;;;23.58;36.19;101803.16;4957419;28;45258;-45
2022/06/13 01:37:47;;;;;;;;;3.25;2.00;;;;;23.59;36.30;101810.16;4957699;28;45175;-39
2022/06/13 01:40:31;;;;;;;;;2.00;2.00;;;;;23.58;36.32;101809.31;4948876;28;45530;-42
2022/06/13 01:43:30;;;;;;;;;2.25;2.25;;;;;23.58;36.71;101808.47;4957061;28;47069;-42
2022/06/13 01:46:05;;;;;;;;;5.00;2.00;;;;;23.57;36.26;101807.63;4957070;28;45639;-41
2022/06/13 01:48:46;;;;;;;;;4.00;3.00;;;;;23.57;36.83;101809.38;4957364;28;45378;-43
2022/06/13 01:51:19;;;;;;;;;3.00;3.00;;;;;23.57;36.42;101806.75;4957516;28;45473;-49
2022/06/13 01:54:01;;;;;;;;;2.50;2.50;;;;;23.57;36.23;101812.03;4957384;28;45461;-49
2022/06/13 01:56:33;;;;;;;;;6.50;3.00;;;;;23.57;36.64;101817.31;4957220;28;45188;-52
2022/06/13 01:59:12;;;;;;;;;3.75;3.00;;;;;23.57;36.77;101827.91;4957170;28;45345;-50
2022/06/13 02:01:47;;;;;;;;;2.00;2.00;;;;;23.56;36.71;101820.91;4960116;28;45392;-49
2022/06/13 02:04:37;;;;;;;;;2.50;2.50;;;;;23.55;36.30;101825.34;4960418;28;46206;-53
2022/06/13 02:07:13;;;;;;;;;5.00;2.25;;;;;23.55;36.72;101835.06;4960205;28;45990;-49
2022/06/13 02:09:46;;;;;;;;;1.75;1.00;;;;;23.55;36.36;101820.06;4960430;28;45302;-50
2022/06/13 02:12:14;;;;;;;;;3.50;2.25;;;;;23.54;36.52;101815.72;4960659;28;45368;-48
2022/06/13 02:14:57;;;;;;;;;5.50;2.25;;;;;23.55;36.62;101816.53;4960237;28;45411;-51
2022/06/13 02:17:27;;;;;;;;;4.00;3.00;;;;;23.54;36.88;101814.84;4960272;28;45526;-47
2022/06/13 02:20:05;;;;;;;;;6.00;3.00;;;;;23.54;36.74;101817.47;4960465;28;45342;-45
2022/06/13 02:22:39;;;;;;;;;3.00;3.00;;;;;23.53;36.82;101811.34;4960428;28;45413;-41
2022/06/13 02:25:20;;;;;;;;;6.50;3.75;;;;;23.53;37.04;101816.63;4958787;28;48202;-44
2022/06/13 02:27:54;;;;;;;;;4.00;4.00;;;;;23.53;37.09;101818.44;4960320;28;45306;-47
2022/06/13 02:30:24;;;;;;;;;5.00;4.00;;;;;23.53;36.65;101813.16;4960475;28;45535;-46
2022/06/13 02:32:56;;;;;;;;;4.75;4.00;;;;;23.53;37.02;101818.44;4960751;28;45375;-43
2022/06/13 02:35:27;;;;;;;;;5.75;4.00;;;;;23.52;37.24;101812.28;4959942;28;45482;-47
2022/06/13 02:37:59;;;;;;;;;3.00;3.00;;;;;23.53;36.92;101811.34;4959972;28;45312;-46
2022/06/13 02:40:26;;;;;;;;;3.00;2.50;;;;;23.52;36.88;101814.94;4960171;28;45293;-45
2022/06/13 02:43:05;;;;;;;;;4.00;3.25;;;;;23.53;37.09;101818.44;4960258;28;45451;-48
2022/06/13 02:45:41;;;;;;;;;3.00;3.00;;;;;23.52;37.31;101814.09;4959757;28;45432;-46
2022/06/13 02:48:17;;;;;;;;;5.00;4.00;;;;;23.52;37.18;101825.50;4958564;28;45743;-45
2022/06/13 02:50:58;;;;;;;;;4.00;4.00;;;;;23.51;37.03;101818.50;4959999;28;45250;-44
2022/06/13 02:53:33;;;;;;;;;6.25;5.00;;;;;23.52;37.29;101816.72;4960140;28;45342;-44
2022/06/13 02:56:23;;;;;;;;;6.00;3.50;;;;;23.51;36.99;101812.38;4959721;28;46107;-48
2022/06/13 02:59:24;;;;;;;;;3.75;3.00;;;;;23.50;37.21;101819.44;4960138;28;45384;-44
2022/06/13 03:01:56;;;;;;;;;6.50;4.50;;;;;23.50;37.06;101813.31;4960149;28;45532;-43
2022/06/13 03:04:33;;;;;;;;;6.00;4.25;;;;;23.49;37.19;101825.66;4960357;28;45464;-45
2022/06/13 03:07:13;;;;;;;;;4.75;3.25;;;;;23.49;37.38;101830.13;4959492;28;45451;-44
2022/06/13 03:10:02;;;;;;;;;5.50;5.00;;;;;23.49;37.49;101825.66;4959348;28;45693;-43
2022/06/13 03:12:36;;;;;;;;;3.75;3.75;;;;;23.49;37.67;101830.13;4959718;28;45369;-40
2022/06/13 03:15:23;;;;;;;;;5.75;3.75;;;;;23.48;37.07;101834.56;4959597;28;45329;-40
2022/06/13 03:17:57;;;;;;;;;7.00;4.25;;;;;23.48;37.12;101839.84;4959746;28;45342;-39
2022/06/13 03:20:29;;;;;;;;;3.00;3.00;;;;;23.47;37.64;101841.63;4959642;28;45358;-40
2022/06/13 03:23:16;;;;;;;;;4.25;4.00;;;;;23.48;37.23;101839.84;4959341;28;45395;-44
2022/06/13 03:25:47;;;;;;;;;3.50;3.50;;;;;23.49;37.44;101835.41;4959622;28;45346;-44
2022/06/13 03:28:21;;;;;;;;;5.50;5.25;;;;;23.47;37.69;101843.44;4959148;28;46609;-46
2022/06/13 03:30:52;;;;;;;;;4.00;4.00;;;;;23.46;37.59;101845.22;4959198;28;45779;-46
2022/06/13 03:33:41;;;;;;;;;4.25;4.00;;;;;23.46;37.81;101847.84;4959263;28;45438;-49
2022/06/13 03:36:19;;;;;;;;;4.25;4.00;;;;;23.46;37.64;101853.16;4959265;28;45435;-46
2022/06/13 03:38:54;;;;;;;;;4.00;4.00;;;;;23.45;37.77;101854.06;4958990;28;46436;-50
2022/06/13 03:41:22;;;;;;;;;4.50;3.75;;;;;23.45;37.42;101848.78;4959326;28;45742;-52
2022/06/13 03:44:10;;;;;;;;;5.00;3.50;;;;;23.45;37.65;101856.72;4959173;28;45312;-48
2022/06/13 03:46:49;;;;;;;;;7.00;5.25;;;;;23.45;37.78;101858.53;4959058;28;45269;-49
2022/06/13 03:49:30;;;;;;;;;7.25;4.75;;;;;23.44;37.76;101857.66;4958944;28;45405;-45
2022/06/13 03:51:59;;;;;;;;;6.50;4.25;;;;;23.45;37.30;101855.88;4958883;28;45393;-45
2022/06/13 03:54:25;;;;;;;;;4.00;4.00;;;;;23.44;37.59;101865.59;4957952;28;45444;-44
2022/06/13 03:57:20;;;;;;;;;1.75;0.75;;;;;23.43;37.60;101861.22;4959310;28;45643;-45
2022/06/13 04:00:01;;;;;;;;;4.00;4.00;;;;;23.43;37.89;101855.94;4957364;28;46492;-45
2022/06/13 04:02:29;;;;;;;;;5.50;3.75;;;;;23.43;37.63;101857.75;4958808;28;45830;-44
2022/06/13 04:04:55;;;;;;;;;3.25;3.25;;;;;23.43;37.51;101858.59;4958988;28;45409;-45
2022/06/13 04:07:23;;;;;;;;;3.00;3.00;;;;;23.42;37.58;101854.25;4959200;28;45511;-43
2022/06/13 04:09:58;;;;;;;;;4.50;4.00;;;;;23.43;37.59;101860.38;4958511;28;46190;-51
2022/06/13 04:12:44;;;;;;;;;5.50;4.00;;;;;23.42;37.86;101861.31;4958743;28;45313;-49
2022/06/13 04:15:31;;;;;;;;;5.00;4.00;;;;;23.42;37.91;101859.56;4958680;28;45435;-45
2022/06/13 04:18:15;;;;;;;;;5.25;4.00;;;;;23.41;37.89;101860.47;4958839;28;45270;-44
2022/06/13 04:20:52;;;;;;;;;2.00;2.00;;;;;23.42;37.75;101856.91;4958301;28;46333;-42
2022/06/13 04:23:43;;;;;;;;;4.00;4.00;;;;;23.42;37.72;101856.91;4957780;28;45402;-48
2022/06/13 04:26:38;;;;;;;;;10.00;4.50;;;;;23.40;37.98;101861.41;4958309;28;45408;-43
2022/06/13 04:29:29;;;;;;;;;3.25;3.25;;;;;23.39;38.01;101862.34;4957236;28;45250;-52
2022/06/13 04:32:07;;;;;;;;;6.00;3.75;;;;;23.40;38.01;101868.47;4957248;28;46351;-50
2022/06/13 04:34:39;;;;;;;;;3.50;3.50;;;;;23.39;38.19;101861.47;4958188;28;45447;-46
2022/06/13 04:37:06;;;;;;;;;4.00;3.00;;;;;23.40;38.07;101863.19;4958309;28;45318;-52
2022/06/13 04:39:35;;;;;;;;;3.50;3.50;;;;;23.40;38.04;101871.13;4958357;28;45410;-50
2022/06/13 04:42:03;;;;;;;;;5.25;4.75;;;;;23.39;37.92;101865.00;4957907;28;45321;-50
2022/06/13 04:44:32;;;;;;;;;7.50;5.00;;;;;23.39;38.05;101864.13;4958013;28;45374;-43
2022/06/13 04:46:59;;;;;;;;;4.00;4.00;;;;;23.39;37.61;101862.34;4958234;28;45338;-48
2022/06/13 04:49:30;;;;;;;;;3.00;3.00;;;;;23.39;37.72;101861.47;4958598;28;45448;-51
2022/06/13 04:51:58;;;;;;;;;6.25;4.00;;;;;23.39;37.74;101864.13;4958147;28;47395;-50
2022/06/13 04:54:28;;;;;;;;;3.00;3.00;;;;;23.38;37.89;101876.50;4958346;28;45801;-55
2022/06/13 04:57:01;;;;;;;;;5.00;4.00;;;;;23.38;38.23;101873.84;4958380;28;45444;-52
2022/06/13 04:59:28;;;;;;;;;4.75;4.00;;;;;23.39;37.80;101878.22;4958512;28;45365;-49
2022/06/13 05:01:56;;;;;;;;;2.75;2.75;;;;;23.39;37.86;101883.50;4958210;28;45329;-47
2022/06/13 05:04:29;;;;;;;;;4.50;3.75;;;;;23.39;37.94;101880.88;4957743;28;45353;-54
2022/06/13 05:07:17;;;;;;;;;4.50;3.00;;;;;23.38;38.13;101881.78;4958064;28;45510;-51
2022/06/13 05:09:52;;;;;;;;;4.25;4.00;;;;;23.36;37.93;101881.00;4958010;28;45326;-52
2022/06/13 05:12:32;;;;;;;;;5.00;4.00;;;;;23.36;37.87;101888.94;4957604;28;46261;-45
2022/06/13 05:15:19;;;;;;;;;4.50;4.00;;;;;23.35;38.11;101896.97;4958006;28;45191;-45
2022/06/13 05:17:56;;;;;;;;;6.00;3.00;;;;;23.34;38.06;101892.63;4957739;28;45331;-42
2022/06/13 05:20:46;;;;;;;;;5.25;3.00;;;;;23.33;38.40;101888.25;4957613;28;45448;-45
2022/06/13 05:23:14;;;;;;;;;5.00;3.75;;;;;23.31;38.41;101885.69;4957422;28;45973;-45
2022/06/13 05:25:43;;;;;;;;;7.25;4.00;;;;;23.29;38.16;101882.28;4957522;28;45421;-42
2022/06/13 05:28:09;;;;;;;;;4.25;4.00;;;;;23.29;38.53;101892.84;4957520;28;45346;-42
2022/06/13 05:30:35;;;;;;;;;4.50;3.25;;;;;23.28;38.54;101888.50;4957649;28;45346;-40
2022/06/13 05:33:00;;;;;;;;;5.50;4.00;;;;;23.27;38.31;101889.41;4957520;28;46272;-44
2022/06/13 05:35:32;;;;;;;;;4.00;4.00;;;;;23.27;38.45;101878.84;4958535;28;45167;-43
2022/06/13 05:38:01;;;;;;;;;4.50;4.00;;;;;23.26;38.80;101887.69;4961138;28;45544;-44
2022/06/13 05:40:27;;;;;;;;;8.00;4.25;;;;;23.24;38.71;101890.44;4961319;28;45207;-45
2022/06/13 05:42:53;;;;;;;;;6.00;5.00;;;;;23.20;38.80;101886.22;4960563;28;45985;-41
2022/06/13 05:45:24;;;;;;;;;5.75;4.25;;;;;23.17;38.75;101895.16;4960725;28;45274;-44
2022/06/13 05:47:53;;;;;;;;;5.00;4.00;;;;;23.13;38.90;101895.38;4960745;28;45325;-50
2022/06/13 05:50:22;;;;;;;;;6.00;4.50;;;;;23.07;38.86;101900.94;4960926;28;45500;-46
2022/06/13 05:52:48;;;;;;;;;6.00;5.00;;;;;23.01;38.64;101902.09;4959225;28;47569;-49
2022/06/13 05:55:14;;;;;;;;;4.00;4.00;;;;;22.97;38.79;101908.50;4960359;28;45751;-51
2022/06/13 05:57:40;;;;;;;;;8.50;5.75;;;;;22.94;38.89;101906.00;4960710;28;45427;-48
2022/06/13 06:00:14;;;;;;;;;6.25;4.00;;;;;22.92;38.99;101908.72;4960890;28;45500;-49
2022/06/13 06:02:40;;;;;;;;;6.25;5.00;;;;;22.86;38.93;101901.06;4960377;28;47368;-52
2022/06/13 06:05:05;;;;;;;;;7.25;6.50;;;;;22.81;39.23;101906.59;4960692;28;45426;-50
2022/06/13 06:07:32;;;;;;;;;5.50;4.00;;;;;22.78;39.12;101905.88;4960876;28;45171;-50
2022/06/13 06:09:58;;;;;;;;;2.50;2.50;;;;;22.75;39.38;101909.53;4959744;28;45258;-50
2022/06/13 06:12:24;;;;;;;;;6.75;6.00;;;;;22.73;39.36;101910.53;4960321;28;46565;-49
2022/06/13 06:14:49;;;;;;;;;7.00;5.00;;;;;22.73;39.54;101916.69;4960508;28;45346;-48
2022/06/13 06:17:14;;;;;;;;;6.00;6.00;;;;;22.73;39.35;101913.16;4960494;28;45477;-50
2022/06/13 06:19:40;;;;;;;;;12.75;7.25;;;;;22.72;39.50;101920.25;4960498;28;45231;-48
2022/06/13 06:22:05;;;;;;;;;4.75;3.75;;;;;22.70;39.41;101927.38;4960042;28;51920;-49
2022/06/13 06:24:30;;;;;;;;;4.75;4.75;;;;;22.67;39.42;101936.31;4960487;28;45476;-45
2022/06/13 06:26:56;;;;;;;;;4.25;4.25;;;;;22.63;39.60;101937.38;4960142;28;45439;-44
2022/06/13 06:29:25;;;;;;;;;4.50;4.00;;;;;22.62;39.77;101926.91;4960240;28;45505;-47
2022/06/13 06:31:50;;;;;;;;;8.50;5.50;;;;;22.62;39.54;101926.91;4959899;28;45511;-45
2022/06/13 06:34:16;;;;;;;;;4.75;4.50;;;;;22.59;39.85;101929.69;4959791;28;49801;-46
2022/06/13 06:36:41;;;;;;;;;6.75;6.75;;;;;22.60;39.75;101931.41;4960054;28;45346;-45
2022/06/13 06:39:07;;;;;;;;;5.50;5.00;;;;;22.58;39.87;101931.47;4960170;28;45581;-47
2022/06/13 06:41:32;;;;;;;;;7.50;4.00;;;;;22.58;39.75;101925.31;4959946;28;46173;-46
2022/06/13 06:43:57;;;;;;;;;4.50;4.00;;;;;22.57;39.91;101926.25;4959836;28;45334;-45
2022/06/13 06:46:24;;;;;;;;;7.00;6.00;;;;;22.59;39.96;101933.19;4957930;28;45408;-49
2022/06/13 06:48:51;;;;;;;;;10.25;7.00;;;;;22.59;39.79;101941.13;4960003;28;45548;-46
2022/06/13 06:51:16;;;;;;;;;6.50;5.50;;;;;22.59;40.08;101934.97;4959701;28;46048;-47
2022/06/13 07:01:53;;;;;;;;;7.75;6.75;;;;;22.63;39.84;101944.47;4959542;28;45744;-50
2022/06/13 07:04:19;;;;;;;;;7.75;5.00;;;;;22.61;39.91;101943.69;4959425;28;45369;-46
2022/06/13 07:06:44;;;;;;;;;6.75;5.50;;;;;22.58;39.68;101949.09;4959504;28;45384;-49
2022/06/13 07:09:09;;;;;;;;;7.75;6.00;;;;;22.55;40.04;101948.31;4958446;28;45367;-49
2022/06/13 07:11:53;;;;;;;;;9.75;6.50;;;;;22.55;40.01;101956.22;4959637;28;45320;-46
2022/06/13 07:14:22;;;;;;;;;8.00;6.00;;;;;22.57;39.87;101948.25;4959336;28;45318;-50
2022/06/13 07:16:48;;;;;;;;;6.00;5.25;;;;;22.62;39.79;101950.69;4959383;28;45452;-51
2022/06/13 07:19:13;;;;;;;;;7.00;5.75;;;;;22.64;39.75;101951.47;4959584;28;45387;-47
2022/06/13 07:21:38;;;;;;;;;8.00;6.50;;;;;22.66;39.95;101946.94;4959225;28;46166;-48
2022/06/13 07:24:04;;;;;;;;;7.50;5.00;;;;;22.66;39.78;101949.59;4959409;28;45262;-51
2022/06/13 07:26:31;;;;;;;;;8.75;6.25;;;;;22.68;39.77;101947.75;4959206;28;45345;-49
2022/06/13 07:28:57;;;;;;;;;6.00;5.25;;;;;22.67;39.58;101949.53;4959400;28;45380;-51
2022/06/13 07:31:30;;;;;;;;;7.25;6.25;;;;;22.63;39.89;101949.75;4958936;28;45323;-49
2022/06/13 07:33:56;;;;;;;;;7.50;6.50;;;;;22.62;39.80;101946.25;4959109;28;45230;-47
2022/06/13 07:36:21;;;;;;;;;6.75;6.00;;;;;22.63;39.77;101947.94;4959100;28;45452;-49
2022/06/13 07:38:48;;;;;;;;;11.00;7.00;;;;;22.65;39.92;101939.97;4959364;28;45524;-49
2022/06/13 07:41:21;;;;;;;;;10.50;6.00;;;;;22.68;39.79;101939.81;4958946;28;45881;-51
2022/06/13 07:43:47;;;;;;;;;9.25;6.00;;;;;22.70;39.69;101944.13;4958915;28;45278;-47
2022/06/13 07:46:13;;;;;;;;;6.00;6.00;;;;;22.72;39.46;101957.25;4958848;28;45749;-47
2022/06/13 07:48:39;;;;;;;;;8.00;6.00;;;;;22.74;39.53;101954.53;4957863;28;45280;-43
2022/06/13 07:51:05;;;;;;;;;6.00;6.00;;;;;22.76;39.29;101945.63;4958613;28;45298;-45
2022/06/13 07:53:32;;;;;;;;;6.75;5.00;;;;;22.78;39.03;101956.94;4958780;28;45434;-47
2022/06/13 07:55:58;;;;;;;;;6.50;5.50;;;;;22.79;38.77;101957.81;4957613;28;45289;-46
2022/06/13 07:58:44;;;;;;;;;7.25;5.75;;;;;22.78;38.80;101956.94;4958196;28;45339;-49
2022/06/13 08:01:11;;;;;;;;;9.00;4.25;;;;;22.79;38.77;101958.66;4957146;28;48322;-47
2022/06/13 08:03:36;;;;;;;;;5.00;5.00;;;;;22.80;38.46;101965.66;4959015;28;45309;-44
2022/06/13 08:06:04;;;;;;;;;5.50;5.00;;;;;22.79;38.87;101961.31;4958812;28;45363;-50
2022/06/13 08:08:30;;;;;;;;;7.00;4.75;;;;;22.79;38.75;101957.81;4958882;28;45701;-50
2022/06/13 08:10:58;;;;;;;;;5.00;5.00;;;;;22.79;38.58;101965.75;4958344;28;45488;-47
2022/06/13 08:13:25;;;;;;;;;3.50;3.50;;;;;22.79;38.52;101960.47;4958508;28;45747;-47
2022/06/13 08:15:51;;;;;;;;;6.50;4.00;;;;;22.78;38.39;101956.09;4958582;28;45305;-48
2022/06/13 08:18:19;;;;;;;;;6.00;5.75;;;;;22.77;38.28;101955.22;4958694;28;45309;-46
2022/06/13 08:20:44;;;;;;;;;5.00;4.00;;;;;22.76;38.42;101961.47;4958272;28;46320;-47
2022/06/13 08:23:13;;;;;;;;;5.00;5.00;;;;;22.76;38.29;101950.91;4958380;28;45422;-45
2022/06/13 08:25:39;;;;;;;;;6.00;5.00;;;;;22.78;38.58;101956.94;4958722;28;45435;-46
2022/06/13 08:28:08;;;;;;;;;6.25;5.00;;;;;22.82;38.54;101962.97;4957819;28;45560;-49
2022/06/13 08:30:53;;;;;;;;;7.50;6.00;;;;;22.88;38.64;101951.22;4958086;28;46235;-46
2022/06/13 08:33:19;;;;;;;;;7.00;5.00;;;;;22.92;38.60;101955.44;4958184;28;45775;-48
2022/06/13 13:30:00;;;;;;;;;4.00;4.00;;;;;24.09;34.88;101859.56;4953837;28;45614;-58
2022/06/13 13:32:40;;;;;;;;;4.75;4.75;;;;;24.12;34.63;101855.91;4957623;28;45459;-59
2022/06/13 13:35:23;;;;;;;;;7.00;4.50;;;;;24.13;35.19;101847.03;4955714;28;46155;-60
2022/06/13 13:37:55;;;;;;;;;5.00;4.75;;;;;24.15;35.11;101858.38;4957143;28;45870;-61
2022/06/13 13:40:32;;;;;;;;;4.25;3.75;;;;;24.16;34.96;101857.44;4957293;28;45437;-61
2022/06/13 13:43:33;;;;;;;;;6.75;3.50;;;;;24.16;34.91;101849.47;4957712;28;45459;-60
2022/06/13 13:46:16;;;;;;;;;7.50;3.50;;;;;24.17;34.31;101842.41;4956938;28;45685;-61
2022/06/13 13:49:01;;;;;;;;;4.50;4.00;;;;;24.18;35.09;101839.66;4956313;28;45789;-55
2022/06/13 13:51:52;;;;;;;;;4.00;3.25;;;;;24.18;34.46;101831.72;4957499;28;45652;-64
2022/06/13 13:54:27;;;;;;;;;3.00;2.25;;;;;24.20;34.89;101836.91;4956950;28;45648;-70
2022/06/13 13:57:05;;;;;;;;;3.75;3.75;;;;;24.21;34.95;101835.97;4958476;28;46493;-62
2022/06/13 13:59:35;;;;;;;;;5.00;3.25;;;;;24.22;34.34;101840.34;4960368;28;45687;-60
2022/06/13 14:02:20;;;;;;;;;5.50;3.75;;;;;24.23;34.98;101827.03;4960509;28;45303;-63
2022/06/13 14:05:07;;;;;;;;;3.50;3.50;;;;;24.23;34.13;101826.16;4960494;28;45388;-62
2022/06/13 14:07:52;;;;;;;;;4.00;4.00;;;;;24.21;34.50;101825.38;4959544;28;46445;-58
2022/06/13 14:10:21;;;;;;;;;5.50;4.50;;;;;24.21;34.52;101817.44;4960089;28;45529;-62
2022/06/13 14:12:59;;;;;;;;;5.50;4.00;;;;;24.19;34.77;101806.94;4960410;28;45386;-59
2022/06/13 14:15:48;;;;;;;;;4.00;4.00;;;;;24.17;34.35;101806.16;4960557;28;45434;-61
2022/06/13 14:18:21;;;;;;;;;5.00;4.00;;;;;24.15;34.46;101812.50;4960385;28;46132;-57
2022/06/13 14:20:47;;;;;;;;;5.25;3.25;;;;;24.16;34.38;101807.09;4960073;28;45478;-61
2022/06/13 14:23:19;;;;;;;;;4.00;4.00;;;;;24.14;34.38;101806.38;4960390;28;45330;-56
2022/06/13 14:25:45;;;;;;;;;7.50;4.00;;;;;24.14;34.47;101800.19;4960257;28;45377;-61
2022/06/13 14:28:16;;;;;;;;;3.25;3.25;;;;;24.13;34.77;101798.47;4959712;28;47420;-59
2022/06/13 14:31:03;;;;;;;;;3.75;3.75;;;;;24.14;34.50;101797.53;4959967;28;45253;-60
2022/06/13 14:36:50;;;;;;;;;3.25;3.25;;;;;24.12;34.37;101791.47;4960194;28;45283;-61
2022/06/13 14:39:51;;;;;;;;;4.00;4.00;;;;;24.10;34.30;101791.56;4958446;28;47556;-61
2022/06/13 14:42:16;;;;;;;;;5.75;4.00;;;;;24.09;34.42;101782.75;4959717;28;45353;-60
2022/06/13 14:44:47;;;;;;;;;4.75;4.00;;;;;24.09;34.60;101785.41;4959844;28;45367;-56
2022/06/13 14:47:23;;;;;;;;;1.00;1.00;;;;;24.09;34.79;101782.75;4959967;28;45400;-62
2022/06/13 14:49:52;;;;;;;;;5.50;4.00;;;;;24.08;34.76;101778.44;4959765;28;46696;-61
2022/06/13 14:52:21;;;;;;;;;3.50;2.00;;;;;24.07;34.55;101774.06;4959640;28;45383;-60
2022/06/13 14:54:46;;;;;;;;;4.25;3.00;;;;;24.08;34.25;101767.84;4959826;28;45314;-58
2022/06/13 14:57:26;;;;;;;;;3.00;2.33;;;;;24.07;34.65;101775.84;4960079;28;45535;-57
2022/06/13 15:00:07;;;;;;;;;5.25;3.50;;;;;24.07;34.58;101779.34;4959469;28;45396;-62
2022/06/13 15:02:54;;;;;;;;;3.00;3.00;;;;;24.06;34.23;101767.06;4959949;28;45844;-62
2022/06/13 15:05:32;;;;;;;;;4.00;3.00;;;;;24.06;34.33;101777.66;4959512;28;45428;-58
2022/06/13 15:08:12;;;;;;;;;3.25;3.25;;;;;24.05;33.98;101775.94;4959415;28;45422;-59
2022/06/13 15:10:53;;;;;;;;;2.50;2.50;;;;;24.05;34.44;101780.38;4959475;28;46647;-61
2022/06/13 15:13:22;;;;;;;;;5.50;4.00;;;;;24.05;34.47;101775.94;4959259;28;45880;-59
2022/06/13 15:15:53;;;;;;;;;3.00;3.00;;;;;24.04;34.45;101771.59;4959448;28;45246;-61
2022/06/13 15:18:27;;;;;;;;;3.00;3.00;;;;;24.04;34.39;101774.22;4958527;28;45501;-58
2022/06/13 15:20:54;;;;;;;;;3.50;3.00;;;;;24.03;34.51;101761.94;4959255;28;45804;-61
2022/06/13 15:23:33;;;;;;;;;2.75;2.75;;;;;24.04;34.24;101766.28;4958060;28;45864;-61
2022/06/13 15:25:59;;;;;;;;;5.25;3.75;;;;;24.04;34.40;101760.13;4959278;28;45306;-59
2022/06/13 15:28:25;;;;;;;;;4.00;3.00;;;;;24.03;34.00;101763.72;4959366;28;45360;-62
2022/06/13 15:31:12;;;;;;;;;5.50;3.00;;;;;24.03;34.04;101761.09;4959109;28;46109;-61
2022/06/13 15:33:38;;;;;;;;;4.00;2.25;;;;;24.02;34.27;101757.56;4959044;28;45423;-59
2022/06/13 15:36:10;;;;;;;;;4.00;4.00;;;;;24.01;33.85;101753.19;4958077;28;45534;-61
2022/06/13 15:38:41;;;;;;;;;3.50;3.50;;;;;24.02;34.48;101754.91;4959670;28;45452;-50
2022/06/13 15:41:12;;;;;;;;;3.50;3.50;;;;;23.98;34.10;101748.06;4958803;28;47033;-61
2022/06/13 15:43:46;;;;;;;;;4.25;3.00;;;;;24.01;34.25;101755.00;4958887;28;45736;-61
2022/06/13 15:46:28;;;;;;;;;2.75;2.75;;;;;24.01;34.36;101753.19;4958886;28;45392;-61
2022/06/13 15:48:56;;;;;;;;;3.00;3.00;;;;;24.00;33.86;101750.66;4958884;28;45246;-61
2022/06/13 15:51:23;;;;;;;;;7.25;3.75;;;;;24.00;33.94;101761.25;4958576;28;45457;-62
2022/06/13 15:53:49;;;;;;;;;4.00;3.25;;;;;23.99;33.65;101749.78;4958717;28;45440;-57
2022/06/13 15:56:34;;;;;;;;;3.00;3.00;;;;;23.99;33.42;101741.00;4958784;28;45302;-61
2022/06/13 15:59:04;;;;;;;;;5.75;4.00;;;;;23.99;33.69;101741.84;4958884;28;45463;-58
2022/06/13 16:01:35;;;;;;;;;3.00;2.25;;;;;23.99;33.37;101744.47;4958468;28;46617;-61
2022/06/13 16:04:12;;;;;;;;;3.25;3.00;;;;;23.97;33.64;101735.81;4958549;28;45877;-60
2022/06/13 16:06:49;;;;;;;;;3.00;2.00;;;;;23.99;33.63;101743.66;4958454;28;45310;-56
2022/06/13 16:09:24;;;;;;;;;3.25;3.00;;;;;23.97;33.68;101741.09;4957425;28;45599;-61
2022/06/13 16:11:53;;;;;;;;;2.75;2.75;;;;;23.98;33.98;101742.78;4958226;28;45385;-62
2022/06/13 16:14:20;;;;;;;;;4.00;4.00;;;;;23.97;33.47;101735.81;4958452;28;45309;-61
2022/06/13 16:16:49;;;;;;;;;3.50;2.00;;;;;23.97;33.64;101741.09;4958524;28;45292;-58
2022/06/13 16:19:27;;;;;;;;;4.50;3.00;;;;;23.96;34.17;101727.91;4957713;28;45521;-61
2022/06/13 16:21:56;;;;;;;;;4.00;3.00;;;;;23.95;34.00;101732.38;4958207;28;46518;-62
2022/06/13 16:24:23;;;;;;;;;4.50;3.00;;;;;23.96;33.57;101734.09;4958194;28;45213;-61
2022/06/13 16:26:49;;;;;;;;;3.25;3.25;;;;;23.96;33.72;101726.16;4958334;28;45314;-61
2022/06/13 16:29:16;;;;;;;;;3.00;3.00;;;;;23.96;33.79;101727.91;4958169;28;45563;-61
2022/06/13 16:31:45;;;;;;;;;3.25;3.25;;;;;23.95;33.46;101721.78;4957958;28;46704;-60
2022/06/13 16:34:16;;;;;;;;;3.50;3.00;;;;;23.95;33.41;101721.78;4958071;28;45280;-57
2022/06/13 16:36:50;;;;;;;;;2.50;2.50;;;;;23.95;34.13;101721.78;4958003;28;45432;-61
2022/06/13 16:39:18;;;;;;;;;3.00;3.00;;;;;23.96;33.98;101722.63;4958223;28;45452;-62
2022/06/13 16:41:54;;;;;;;;;2.00;2.00;;;;;23.96;33.59;101722.63;4958008;28;45833;-61
2022/06/13 16:44:30;;;;;;;;;3.00;3.00;;;;;23.95;33.41;101721.78;4958008;28;45199;-61
2022/06/13 16:47:02;;;;;;;;;3.00;3.00;;;;;23.94;33.31;101705.00;4958046;28;45294;-60
2022/06/13 16:49:30;;;;;;;;;4.50;3.50;;;;;23.95;33.39;101708.53;4956671;28;45432;-60
2022/06/13 16:52:01;;;;;;;;;2.50;2.50;;;;;23.92;33.51;101701.56;4957664;28;47241;-61
2022/06/13 16:54:35;;;;;;;;;5.00;3.25;;;;;23.93;33.85;101703.28;4957847;28;45352;-61
2022/06/13 16:57:13;;;;;;;;;2.25;2.00;;;;;23.93;33.90;101702.44;4957787;28;45428;-61
2022/06/13 16:59:59;;;;;;;;;3.00;2.50;;;;;23.93;33.84;101705.09;4958338;28;45470;-60